Accueil
METAR-TAF:

METAR-TAF

Aéroports :

Aéroport d'Aurigny

Aurigny,

latitude: 49-43N, longitude: 002-12W, altitude: 71 m

Observation

Le bulletin a été fait il y a 2 heures et 17 minutes, à 18:20 UTC
Vent 5 kt de nord
Température 13°C
Humidité 94%
Pression 1028 hPa
Visibilité 10 km ou plus
pas de nuages en-dessous de 1500 mètres et pas de cumulonimbus.

METAR: EGJA 211820Z 35005KT CAVOK 13/12 Q1028

Heure: 21:37 (20:37 UTC)

Prévision

Le bulletin a été fait il y a 6 heures et 40 minutes, à 13:57 UTC
Prévision valable du 21 à 15 UTC au 21 à 19 UTC
Vent 11 kt de nord
Visibilité 10 km ou plus
pas de nuages en-dessous de 1500 mètres et pas de cumulonimbus.

TAF: EGJA 211357Z 2115/2119 01011KT CAVOK

Observations et prévisions météorologiques de plus de 4000 aéroports (messages METAR et TAF).

Les stations disponibles sont représentées par des disques jaunes et rouges sur la carte.

Passer la souris dessus pour voir le nom de la station.

Cliquer dessus pour voir les observations et prévisions météorologiques.

Pour changer de carte: cliquez sur les boutons verts avec une croix noire pour zoomer, sur le bouton vert avec un tiret pour effectuer un zoom arrière, ou sur les flèches vertes pour les cartes adjacentes.


METAR-TAF: